createdAt,value
2022-12-16T00:01:58.848Z,327.10
2022-12-16T00:12:02.995Z,328.40
2022-12-16T00:22:06.664Z,332.70
2022-12-16T00:32:10.419Z,331.70
2022-12-16T00:42:14.285Z,335.70
2022-12-16T00:52:18.156Z,332.80
2022-12-16T01:02:22.000Z,333.40
2022-12-16T01:12:26.194Z,331.50
2022-12-16T01:22:32.850Z,337.50
2022-12-16T01:32:37.003Z,338.50
2022-12-16T01:42:40.673Z,342.10
2022-12-16T01:52:52.043Z,340.40
2022-12-16T02:02:58.677Z,337.30
2022-12-16T02:13:27.342Z,335.20
2022-12-16T02:23:31.232Z,335.30
2022-12-16T02:33:50.437Z,334.80
2022-12-16T02:43:56.250Z,340.90
2022-12-16T02:53:59.942Z,337.70
2022-12-16T03:04:12.643Z,336.80
2022-12-16T03:14:19.625Z,339.00
2022-12-16T03:24:24.382Z,342.60
2022-12-16T03:34:43.668Z,336.40
2022-12-16T03:44:49.912Z,337.30
2022-12-16T03:54:53.625Z,337.00
2022-12-16T04:04:57.929Z,335.50
2022-12-16T04:15:20.472Z,328.50
2022-12-16T04:25:35.075Z,329.90
2022-12-16T04:35:57.532Z,331.80
2022-12-16T04:46:19.920Z,333.80
2022-12-16T04:56:42.157Z,334.20
2022-12-16T05:07:04.475Z,340.80
2022-12-16T05:17:26.817Z,335.50
2022-12-16T05:27:50.176Z,337.10
2022-12-16T05:38:12.089Z,333.90
2022-12-16T05:48:34.345Z,331.80
2022-12-16T06:04:37.902Z,41.30
2022-12-16T06:15:00.050Z,36.70
2022-12-16T06:25:22.957Z,37.50
2022-12-16T06:35:45.271Z,42.60
2022-12-16T06:46:07.464Z,44.50
2022-12-16T06:56:29.795Z,51.90
2022-12-16T07:06:52.143Z,48.30
2022-12-16T07:17:17.205Z,48.20
2022-12-16T07:27:40.187Z,55.70
2022-12-16T07:38:02.988Z,56.80
2022-12-16T07:48:27.095Z,54.60
2022-12-16T08:08:03.099Z,352.30
2022-12-16T08:18:27.674Z,367.30
2022-12-16T08:28:50.069Z,141.70
2022-12-16T08:39:12.409Z,74.40
2022-12-16T08:49:34.713Z,71.90
2022-12-16T08:59:58.861Z,36.90
2022-12-16T09:10:24.858Z,36.70
2022-12-16T09:20:47.670Z,34.60
2022-12-16T09:31:10.249Z,363.10
2022-12-16T09:41:52.495Z,367.80
2022-12-16T09:52:20.852Z,383.20
2022-12-16T10:02:45.682Z,41.10
2022-12-16T10:13:39.792Z,142.10
2022-12-16T10:24:39.594Z,370.60
2022-12-16T10:35:02.554Z,356.50
2022-12-16T10:45:47.601Z,342.30
2022-12-16T10:56:12.836Z,368.60
2022-12-16T11:06:55.796Z,382.00
2022-12-16T11:17:35.379Z,392.30
2022-12-16T11:27:57.652Z,327.60
2022-12-16T11:38:23.542Z,348.20
2022-12-16T11:48:59.572Z,377.30
2022-12-16T11:59:49.181Z,370.40
2022-12-16T12:10:35.887Z,422.20
2022-12-16T12:21:29.792Z,389.50
2022-12-16T12:31:58.050Z,387.30
2022-12-16T12:42:20.486Z,391.30
2022-12-16T12:53:04.224Z,462.30
2022-12-16T13:03:51.756Z,363.30
2022-12-16T13:14:14.042Z,352.60
2022-12-16T13:25:01.785Z,352.80
2022-12-16T13:35:34.573Z,374.40
2022-12-16T13:46:23.950Z,351.00
2022-12-16T13:56:58.599Z,392.70
2022-12-16T14:07:24.781Z,352.50
2022-12-16T14:17:56.031Z,346.00
2022-12-16T14:28:19.439Z,342.50
2022-12-16T14:38:49.657Z,352.40
2022-12-16T14:49:11.885Z,368.60
2022-12-16T14:59:38.824Z,366.40
2022-12-16T15:10:11.225Z,315.60
2022-12-16T15:20:44.371Z,376.40
2022-12-16T15:31:08.789Z,433.10
2022-12-16T15:41:51.989Z,374.70
2022-12-16T15:52:14.267Z,408.40
2022-12-16T16:02:44.409Z,385.60
2022-12-16T16:13:06.817Z,386.20
2022-12-16T16:23:30.797Z,375.50
2022-12-16T16:33:53.451Z,376.40
2022-12-16T16:44:19.546Z,363.80
2022-12-16T16:54:42.530Z,381.60
2022-12-16T17:05:06.753Z,359.30
2022-12-16T17:15:48.343Z,393.40
2022-12-16T17:26:12.822Z,344.90
2022-12-16T17:36:37.342Z,341.20
2022-12-16T17:46:59.686Z,345.20
2022-12-16T17:57:22.065Z,336.10
2022-12-16T18:07:44.464Z,394.00
2022-12-16T18:18:08.580Z,364.50
2022-12-16T18:28:33.380Z,333.40
2022-12-16T18:38:57.443Z,364.60
2022-12-16T18:49:19.921Z,375.70
2022-12-16T18:59:45.708Z,355.40
2022-12-16T19:10:09.435Z,355.20
2022-12-16T19:20:33.475Z,389.00
2022-12-16T19:30:57.723Z,371.60
2022-12-16T19:41:20.011Z,379.90
2022-12-16T19:51:44.510Z,410.60
2022-12-16T20:02:07.009Z,360.00
2022-12-16T20:12:32.091Z,391.80
2022-12-16T20:22:54.168Z,386.80
2022-12-16T20:33:18.999Z,329.10
2022-12-16T20:43:41.769Z,332.30
2022-12-16T20:54:07.488Z,390.90
2022-12-16T21:04:29.719Z,340.60
2022-12-16T21:14:51.975Z,356.30
2022-12-16T21:25:16.726Z,356.50
2022-12-16T21:35:42.197Z,386.20
2022-12-16T21:46:13.785Z,329.90
2022-12-16T21:56:38.591Z,336.80
2022-12-16T22:07:00.896Z,347.00
2022-12-16T22:17:23.129Z,363.10
2022-12-16T22:27:45.599Z,348.60
2022-12-16T22:38:09.577Z,343.60
2022-12-16T22:48:31.761Z,344.30
2022-12-16T22:58:56.219Z,353.20
2022-12-16T23:09:20.464Z,379.40
2022-12-16T23:19:42.661Z,367.00
2022-12-16T23:30:04.944Z,322.30
2022-12-16T23:40:28.083Z,355.80
2022-12-16T23:50:50.921Z,332.80
